createdAt,value
2022-08-19T00:01:33.235Z,16.2
2022-08-19T00:04:04.051Z,16.2
2022-08-19T00:06:44.763Z,16.2
2022-08-19T00:09:15.374Z,16.1
2022-08-19T00:11:45.987Z,16.2
2022-08-19T00:14:16.698Z,16.1
2022-08-19T00:16:47.330Z,16.1
2022-08-19T00:19:17.900Z,16.0
2022-08-19T00:21:58.510Z,16.0
2022-08-19T00:24:29.693Z,16.0
2022-08-19T00:27:05.001Z,16.0
2022-08-19T00:29:25.903Z,16.0
2022-08-19T00:32:02.921Z,16.0
2022-08-19T00:34:40.084Z,16.0
2022-08-19T00:37:10.687Z,16.0
2022-08-19T00:42:11.437Z,15.9
2022-08-19T00:44:42.022Z,15.9
2022-08-19T00:47:14.091Z,15.9
2022-08-19T00:49:58.102Z,15.9
2022-08-19T00:52:28.671Z,15.9
2022-08-19T00:54:59.364Z,15.9
2022-08-19T01:02:30.235Z,16.0
2022-08-19T01:05:10.884Z,16.0
2022-08-19T01:07:41.487Z,16.0
2022-08-19T01:10:12.085Z,16.0
2022-08-19T01:12:36.919Z,15.9
2022-08-19T01:15:07.605Z,15.9
2022-08-19T01:17:38.214Z,15.8
2022-08-19T01:22:58.973Z,15.9
2022-08-19T01:25:29.580Z,15.9
2022-08-19T01:28:02.137Z,15.9
2022-08-19T01:30:24.105Z,15.9
2022-08-19T01:33:11.432Z,15.8
2022-08-19T01:35:42.054Z,15.9
2022-08-19T01:38:13.312Z,15.8
2022-08-19T01:40:35.578Z,15.8
2022-08-19T01:43:06.192Z,15.8
2022-08-19T01:45:36.801Z,15.8
2022-08-19T01:48:17.391Z,15.8
2022-08-19T01:50:58.000Z,15.8
2022-08-19T01:53:30.586Z,15.8
2022-08-19T01:55:54.889Z,15.8
2022-08-19T01:58:25.503Z,15.8
2022-08-19T02:03:36.293Z,15.8
2022-08-19T02:06:08.356Z,15.8
2022-08-19T02:08:38.995Z,15.8
2022-08-19T02:11:11.701Z,15.8
2022-08-19T02:13:42.304Z,15.8
2022-08-19T02:16:13.468Z,15.8
2022-08-19T02:18:54.112Z,15.7
2022-08-19T02:21:24.710Z,15.7
2022-08-19T02:23:55.315Z,15.8
2022-08-19T02:26:25.912Z,15.8
2022-08-19T02:28:56.531Z,15.8
2022-08-19T02:31:27.148Z,15.8
2022-08-19T02:34:07.808Z,15.8
2022-08-19T02:36:42.253Z,15.8
2022-08-19T02:39:04.257Z,15.8
2022-08-19T02:44:18.483Z,15.8
2022-08-19T02:46:50.208Z,15.8
2022-08-19T02:49:22.458Z,15.8
2022-08-19T02:51:55.354Z,15.8
2022-08-19T02:54:25.969Z,15.8
2022-08-19T02:56:56.550Z,15.8
2022-08-19T02:59:27.156Z,15.7
2022-08-19T03:02:07.778Z,15.6
2022-08-19T03:04:38.411Z,15.6
2022-08-19T03:07:11.018Z,15.6
2022-08-19T03:09:41.944Z,15.6
2022-08-19T03:12:12.545Z,15.6
2022-08-19T03:14:43.157Z,15.6
2022-08-19T03:17:23.736Z,15.6
2022-08-19T03:19:54.326Z,15.5
2022-08-19T03:24:55.089Z,15.5
2022-08-19T03:27:30.114Z,15.5
2022-08-19T03:29:55.406Z,15.6
2022-08-19T03:32:33.571Z,15.6
2022-08-19T03:35:07.694Z,15.6
2022-08-19T03:37:38.438Z,15.6
2022-08-19T03:40:01.758Z,15.7
2022-08-19T03:42:45.423Z,15.7
2022-08-19T03:45:20.120Z,15.6
2022-08-19T03:47:50.734Z,15.6
2022-08-19T03:50:21.354Z,15.6
2022-08-19T03:52:52.080Z,15.6
2022-08-19T03:55:22.753Z,15.6
2022-08-19T03:57:56.225Z,15.6
2022-08-19T04:00:29.207Z,15.6
2022-08-19T04:05:30.024Z,15.6
2022-08-19T04:08:00.665Z,15.6
2022-08-19T04:10:34.384Z,15.6
2022-08-19T04:13:04.982Z,15.6
2022-08-19T04:15:45.618Z,15.6
2022-08-19T04:18:16.230Z,15.6
2022-08-19T04:20:46.875Z,15.6
2022-08-19T04:23:17.504Z,15.6
2022-08-19T04:25:45.844Z,15.6
2022-08-19T04:28:19.606Z,15.6
2022-08-19T04:31:00.221Z,15.6
2022-08-19T04:33:30.837Z,15.7
2022-08-19T04:36:01.440Z,15.6
2022-08-19T04:38:32.044Z,15.6
2022-08-19T04:41:02.639Z,15.6
2022-08-19T04:46:37.554Z,15.8
2022-08-19T04:48:43.464Z,15.7
2022-08-19T04:51:15.951Z,15.7
2022-08-19T04:53:46.899Z,15.8
2022-08-19T04:56:17.490Z,15.8
2022-08-19T04:58:58.089Z,15.8
2022-08-19T05:01:28.820Z,15.8
2022-08-19T05:04:01.307Z,15.8
2022-08-19T05:06:31.921Z,15.8
2022-08-19T05:09:07.235Z,15.8
2022-08-19T05:11:31.134Z,15.8
2022-08-19T05:14:11.774Z,15.8
2022-08-19T05:16:42.376Z,15.8
2022-08-19T05:19:18.593Z,15.8
2022-08-19T05:21:49.183Z,15.8
2022-08-19T05:26:49.927Z,15.9
2022-08-19T05:29:33.391Z,15.9
2022-08-19T05:31:56.869Z,16.0
2022-08-19T05:34:27.477Z,16.0
2022-08-19T05:36:58.031Z,16.0
2022-08-19T05:39:28.779Z,15.9
2022-08-19T05:42:11.943Z,15.8
2022-08-19T05:44:42.567Z,15.9
2022-08-19T05:47:13.135Z,15.9
2022-08-19T05:49:43.741Z,15.9
2022-08-19T05:54:45.545Z,16.0
2022-08-19T05:57:28.063Z,16.0
2022-08-19T05:59:59.075Z,16.0
2022-08-19T06:02:24.824Z,16.0
2022-08-19T06:07:25.879Z,16.0
2022-08-19T06:09:59.305Z,16.0
2022-08-19T06:12:41.462Z,16.0
2022-08-19T06:15:12.082Z,16.0
2022-08-19T06:17:42.683Z,16.0
2022-08-19T06:20:13.458Z,16.0
2022-08-19T06:22:44.565Z,16.0
2022-08-19T06:25:15.153Z,16.1
2022-08-19T06:28:13.833Z,16.2
2022-08-19T06:30:25.317Z,16.2
2022-08-19T06:32:55.924Z,16.2
2022-08-19T06:35:28.959Z,16.2
2022-08-19T06:37:59.565Z,16.1
2022-08-19T06:40:40.163Z,16.1
2022-08-19T06:43:11.074Z,16.2
2022-08-19T06:48:12.701Z,16.1
2022-08-19T06:50:45.614Z,16.1
2022-08-19T06:53:08.971Z,16.3
2022-08-19T06:55:52.050Z,16.3
2022-08-19T06:58:22.716Z,16.3
2022-08-19T07:00:53.335Z,16.4
2022-08-19T07:03:27.652Z,16.3
2022-08-19T07:05:58.594Z,16.4
2022-08-19T07:08:23.697Z,16.3
2022-08-19T07:11:09.551Z,16.4
2022-08-19T07:13:44.374Z,16.3
2022-08-19T07:16:15.079Z,16.3
2022-08-19T07:18:43.903Z,16.3
2022-08-19T07:21:16.417Z,16.3
2022-08-19T07:23:40.048Z,16.2
2022-08-19T07:28:54.580Z,16.4
2022-08-19T07:31:25.597Z,16.4
2022-08-19T07:33:56.312Z,16.5
2022-08-19T07:36:27.332Z,16.5
2022-08-19T07:39:07.939Z,16.4
2022-08-19T07:41:38.536Z,16.4
2022-08-19T07:44:09.157Z,16.5
2022-08-19T07:46:39.801Z,16.6
2022-08-19T07:49:15.148Z,16.7
2022-08-19T07:51:45.752Z,16.6
2022-08-19T07:54:26.367Z,16.6
2022-08-19T07:56:56.965Z,16.6
2022-08-19T07:59:27.555Z,16.6
2022-08-19T08:01:58.219Z,16.5
2022-08-19T08:04:28.987Z,16.6
2022-08-19T08:09:39.738Z,16.6
2022-08-19T08:12:09.028Z,16.6
2022-08-19T08:14:40.261Z,16.8
2022-08-19T08:17:10.833Z,16.8
2022-08-19T08:19:40.093Z,16.9
2022-08-19T08:22:22.350Z,16.7
2022-08-19T08:24:52.941Z,16.7
2022-08-19T08:27:17.264Z,16.8
2022-08-19T08:29:48.750Z,16.7
2022-08-19T08:32:23.379Z,16.6
2022-08-19T08:34:55.746Z,16.7
2022-08-19T08:37:36.333Z,16.7
2022-08-19T08:40:09.025Z,16.8
2022-08-19T08:42:31.951Z,16.8
2022-08-19T08:45:02.719Z,16.8
2022-08-19T08:50:13.535Z,17.0
2022-08-19T08:52:47.217Z,16.9
2022-08-19T08:55:17.871Z,16.9
2022-08-19T08:57:49.659Z,16.8
2022-08-19T09:00:20.263Z,16.8
2022-08-19T09:02:51.590Z,16.8
2022-08-19T09:05:22.690Z,16.9
2022-08-19T09:08:08.893Z,17.0
2022-08-19T09:10:34.459Z,17.0
2022-08-19T09:13:09.305Z,17.1
2022-08-19T09:15:40.488Z,17.1
2022-08-19T09:18:15.217Z,17.3
2022-08-19T09:20:50.286Z,17.2
2022-08-19T09:23:26.588Z,17.4
2022-08-19T09:25:51.293Z,17.3
2022-08-19T09:30:52.899Z,17.3
2022-08-19T09:33:23.684Z,17.5
2022-08-19T09:36:04.625Z,17.4
2022-08-19T09:38:31.574Z,17.4
2022-08-19T09:41:04.443Z,17.5
2022-08-19T09:46:10.179Z,17.5
2022-08-19T09:48:34.302Z,17.5
2022-08-19T09:51:14.908Z,17.5
2022-08-19T09:53:45.534Z,17.4
2022-08-19T09:56:16.237Z,17.4
2022-08-19T09:58:52.665Z,17.4
2022-08-19T10:01:23.366Z,17.5
2022-08-19T10:04:07.704Z,17.4
2022-08-19T10:06:38.251Z,17.4
2022-08-19T10:11:39.646Z,17.4
2022-08-19T10:14:06.425Z,17.5
2022-08-19T10:16:37.199Z,17.5
2022-08-19T10:19:25.389Z,17.4
2022-08-19T10:21:46.011Z,17.3
2022-08-19T10:24:12.574Z,17.3
2022-08-19T10:26:43.346Z,17.4
2022-08-19T10:29:32.376Z,17.2
2022-08-19T10:31:57.206Z,17.1
2022-08-19T10:34:34.550Z,17.2
2022-08-19T10:37:00.642Z,17.2
2022-08-19T10:39:32.733Z,17.1
2022-08-19T10:42:03.790Z,17.1
2022-08-19T10:44:34.696Z,17.0
2022-08-19T10:47:05.288Z,16.9
2022-08-19T10:52:18.604Z,16.7
2022-08-19T10:54:50.630Z,16.7
2022-08-19T10:57:18.698Z,16.8
2022-08-19T10:59:43.333Z,16.8
2022-08-19T11:02:23.958Z,16.7
2022-08-19T11:04:54.579Z,16.6
2022-08-19T11:07:25.099Z,16.7
2022-08-19T11:09:55.714Z,16.7
2022-08-19T11:12:32.138Z,16.7
2022-08-19T11:15:02.753Z,16.7
2022-08-19T11:17:43.375Z,16.7
2022-08-19T11:20:14.799Z,16.6
2022-08-19T11:22:45.923Z,16.6
2022-08-19T11:25:18.222Z,16.4
2022-08-19T11:27:48.848Z,16.4
2022-08-19T11:32:59.626Z,16.5
2022-08-19T11:35:30.224Z,16.4
2022-08-19T11:38:00.800Z,16.2
2022-08-19T11:40:31.444Z,16.3
2022-08-19T11:43:02.079Z,16.3
2022-08-19T11:45:42.793Z,16.4
2022-08-19T11:48:13.373Z,16.5
2022-08-19T11:50:43.989Z,16.4
2022-08-19T11:53:14.599Z,16.4
2022-08-19T11:55:45.214Z,16.4
2022-08-19T11:58:16.461Z,16.4
2022-08-19T12:00:59.665Z,16.5
2022-08-19T12:03:30.336Z,16.5
2022-08-19T12:06:01.162Z,16.5
2022-08-19T12:08:31.775Z,16.6
2022-08-19T12:13:32.519Z,16.5
2022-08-19T12:16:13.122Z,16.5
2022-08-19T12:18:43.731Z,16.6
2022-08-19T12:21:14.335Z,16.5
2022-08-19T12:23:44.941Z,16.5
2022-08-19T12:26:17.531Z,16.5
2022-08-19T12:28:53.563Z,16.6
2022-08-19T12:31:28.714Z,16.7
2022-08-19T12:33:59.306Z,16.7
2022-08-19T12:36:29.901Z,16.6
2022-08-19T12:39:00.847Z,16.6
2022-08-19T12:41:23.453Z,16.6
2022-08-19T12:44:05.139Z,16.7
2022-08-19T12:46:43.851Z,16.7
2022-08-19T12:49:06.379Z,16.7
2022-08-19T12:54:08.548Z,16.6
2022-08-19T12:56:39.255Z,16.6
2022-08-19T12:59:19.859Z,16.7
2022-08-19T13:01:50.476Z,16.6
2022-08-19T13:04:21.098Z,16.6
2022-08-19T13:06:51.706Z,16.6
2022-08-19T13:09:22.333Z,16.5
2022-08-19T13:11:52.936Z,16.5
2022-08-19T13:14:33.551Z,16.5
2022-08-19T13:17:04.378Z,16.6
2022-08-19T13:19:34.976Z,16.5
2022-08-19T13:22:07.329Z,16.5
2022-08-19T13:24:35.619Z,16.6
2022-08-19T13:27:17.839Z,16.6
2022-08-19T13:29:48.454Z,16.6
2022-08-19T13:34:49.222Z,16.5
2022-08-19T13:37:23.991Z,16.4
2022-08-19T13:39:54.650Z,16.4
2022-08-19T13:42:35.464Z,16.4
2022-08-19T13:45:06.066Z,16.4
2022-08-19T13:47:36.648Z,16.4
2022-08-19T13:50:09.988Z,16.4
2022-08-19T13:52:40.626Z,16.4
2022-08-19T13:55:11.236Z,16.4
2022-08-19T13:57:45.254Z,16.4
2022-08-19T14:00:16.191Z,16.4
2022-08-19T14:02:46.884Z,16.3
2022-08-19T14:05:19.680Z,16.4
2022-08-19T14:07:50.386Z,16.3
2022-08-19T14:10:20.992Z,16.4
2022-08-19T14:15:31.717Z,16.3
2022-08-19T14:18:02.312Z,16.3
2022-08-19T14:20:36.291Z,16.2
2022-08-19T14:23:06.901Z,16.3
2022-08-19T14:25:47.495Z,16.2
2022-08-19T14:28:24.912Z,16.2
2022-08-19T14:30:48.819Z,16.2
2022-08-19T14:33:19.481Z,16.2
2022-08-19T14:35:51.067Z,16.2
2022-08-19T14:38:21.976Z,16.3
2022-08-19T14:41:01.755Z,16.2
2022-08-19T14:43:32.386Z,16.2
2022-08-19T14:48:33.140Z,16.2
2022-08-19T14:51:03.789Z,16.2
2022-08-19T14:56:14.561Z,16.1
2022-08-19T14:58:45.228Z,16.2
2022-08-19T15:01:15.994Z,16.2
2022-08-19T15:03:46.764Z,16.2
2022-08-19T15:06:17.354Z,16.2
2022-08-19T15:08:47.971Z,16.1
2022-08-19T15:11:34.321Z,16.0
2022-08-19T15:14:04.931Z,16.1
2022-08-19T15:16:35.539Z,16.1
2022-08-19T15:19:06.144Z,16.1
2022-08-19T15:21:36.750Z,16.1
2022-08-19T15:24:17.338Z,16.2
2022-08-19T15:26:48.554Z,16.1
2022-08-19T15:29:19.192Z,16.1
2022-08-19T15:31:49.790Z,16.1
2022-08-19T15:36:52.155Z,16.1
2022-08-19T15:39:32.793Z,16.1
2022-08-19T15:42:03.534Z,16.1
2022-08-19T15:44:28.519Z,16.1
2022-08-19T15:47:00.654Z,16.0
2022-08-19T15:49:31.247Z,16.0
2022-08-19T15:52:01.860Z,16.0
2022-08-19T15:54:42.484Z,16.1
2022-08-19T15:57:13.073Z,16.1
2022-08-19T15:59:46.728Z,16.1
2022-08-19T16:02:13.106Z,16.1
2022-08-19T16:04:52.709Z,16.1
2022-08-19T16:07:23.484Z,16.1
2022-08-19T16:10:25.993Z,16.0
2022-08-19T16:12:27.727Z,16.1
2022-08-19T16:17:28.487Z,16.0
2022-08-19T16:20:07.335Z,16.1
2022-08-19T16:22:48.027Z,16.0
2022-08-19T16:25:18.708Z,16.0
2022-08-19T16:27:54.365Z,16.1
2022-08-19T16:30:17.949Z,16.0
2022-08-19T16:32:48.567Z,16.0
2022-08-19T16:35:19.166Z,16.1
2022-08-19T16:37:59.780Z,16.1
2022-08-19T16:43:00.565Z,16.0
2022-08-19T16:45:31.154Z,16.1
2022-08-19T16:48:04.583Z,16.0
2022-08-19T16:50:48.558Z,16.1
2022-08-19T16:53:09.452Z,16.1
2022-08-19T16:58:12.477Z,16.0
2022-08-19T17:00:48.845Z,16.0
2022-08-19T17:03:15.199Z,15.9
2022-08-19T17:05:46.588Z,15.9
2022-08-19T17:08:29.248Z,16.0
2022-08-19T17:11:16.885Z,15.9
2022-08-19T17:13:27.861Z,15.9
2022-08-19T17:15:58.779Z,15.8
2022-08-19T17:18:29.633Z,15.7
2022-08-19T17:21:12.382Z,15.4
2022-08-19T17:23:44.015Z,15.1
2022-08-19T17:26:17.108Z,15.0
2022-08-19T17:28:39.139Z,15.0
2022-08-19T17:31:09.739Z,15.0
2022-08-19T17:33:41.050Z,15.0
2022-08-19T17:38:54.351Z,14.8
2022-08-19T17:41:24.945Z,14.7
2022-08-19T17:43:55.569Z,14.7
2022-08-19T17:46:26.164Z,14.7
2022-08-19T17:48:56.786Z,14.7
2022-08-19T17:51:37.411Z,14.5
2022-08-19T17:54:08.138Z,14.5
2022-08-19T17:56:43.995Z,14.5
2022-08-19T17:59:14.606Z,14.4
2022-08-19T18:01:52.897Z,14.4
2022-08-19T18:04:15.353Z,14.4
2022-08-19T18:06:56.172Z,14.3
2022-08-19T18:09:26.801Z,14.2
2022-08-19T18:11:53.312Z,14.2
2022-08-19T18:14:24.064Z,14.2
2022-08-19T18:19:40.944Z,14.2
2022-08-19T18:22:12.587Z,14.2
2022-08-19T18:24:45.931Z,14.1
2022-08-19T18:27:06.695Z,14.1
2022-08-19T18:29:37.313Z,14.1
2022-08-19T18:32:07.912Z,14.1
2022-08-19T18:34:54.251Z,14.2
2022-08-19T18:37:24.885Z,14.1
2022-08-19T18:39:55.513Z,14.2
2022-08-19T18:42:26.434Z,14.1
2022-08-19T18:44:59.827Z,14.1
2022-08-19T18:47:30.592Z,14.1
2022-08-19T18:50:11.780Z,14.2
2022-08-19T18:52:42.472Z,14.2
2022-08-19T18:55:13.078Z,14.1
2022-08-19T19:00:13.856Z,14.1
2022-08-19T19:02:44.435Z,14.1
2022-08-19T19:05:25.080Z,14.2
2022-08-19T19:07:55.802Z,14.1
2022-08-19T19:10:26.478Z,14.1
2022-08-19T19:12:50.621Z,14.1
2022-08-19T19:15:21.911Z,14.0
2022-08-19T19:17:53.853Z,14.1
2022-08-19T19:20:36.191Z,14.0
2022-08-19T19:23:07.165Z,14.0
2022-08-19T19:25:50.111Z,14.1
2022-08-19T19:28:13.693Z,14.0
2022-08-19T19:30:36.689Z,14.0
2022-08-19T19:33:17.296Z,14.0
2022-08-19T19:35:47.883Z,14.0
2022-08-19T19:40:58.617Z,14.0
2022-08-19T19:43:29.211Z,13.9
2022-08-19T19:45:51.284Z,13.9
2022-08-19T19:48:31.922Z,13.9
2022-08-19T19:51:02.507Z,13.9
2022-08-19T19:53:33.113Z,13.9
2022-08-19T19:56:03.730Z,13.8
2022-08-19T19:58:34.318Z,13.8
2022-08-19T20:01:09.443Z,13.8
2022-08-19T20:03:53.995Z,13.6
2022-08-19T20:06:24.607Z,13.6
2022-08-19T20:08:55.234Z,13.6
2022-08-19T20:11:19.906Z,13.6
2022-08-19T20:13:50.485Z,13.5
2022-08-19T20:16:21.062Z,13.4
2022-08-19T20:21:31.884Z,13.4
2022-08-19T20:24:09.658Z,13.4
2022-08-19T20:26:40.765Z,13.3
2022-08-19T20:29:11.365Z,13.3
2022-08-19T20:31:57.240Z,13.3
2022-08-19T20:34:18.326Z,13.3
2022-08-19T20:36:51.103Z,13.3
2022-08-19T20:39:21.815Z,13.2
2022-08-19T20:41:52.694Z,13.2
2022-08-19T20:44:23.307Z,13.2
2022-08-19T20:47:04.235Z,13.2
2022-08-19T20:54:35.218Z,13.2
2022-08-19T20:57:05.839Z,13.2
2022-08-19T21:02:16.605Z,13.2
2022-08-19T21:04:47.237Z,13.2
2022-08-19T21:07:20.800Z,13.2
2022-08-19T21:09:49.571Z,13.2
2022-08-19T21:12:20.166Z,13.2
2022-08-19T21:15:00.753Z,13.2
2022-08-19T21:17:31.343Z,13.2
2022-08-19T21:20:01.991Z,13.2
2022-08-19T21:22:32.592Z,13.2
2022-08-19T21:25:03.180Z,13.2
2022-08-19T21:27:33.756Z,13.2
2022-08-19T21:30:14.583Z,13.2
2022-08-19T21:32:47.332Z,13.2
2022-08-19T21:35:21.077Z,13.2
2022-08-19T21:37:51.659Z,13.2
2022-08-19T21:42:52.399Z,13.2
2022-08-19T21:45:33.009Z,13.2
2022-08-19T21:48:03.613Z,13.2
2022-08-19T21:50:34.222Z,13.2
2022-08-19T21:53:00.103Z,13.2
2022-08-19T21:55:34.411Z,13.2
2022-08-19T21:58:05.011Z,13.3
2022-08-19T22:00:40.871Z,13.2
2022-08-19T22:03:12.538Z,13.2
2022-08-19T22:05:43.176Z,13.2
2022-08-19T22:08:13.797Z,13.2
2022-08-19T22:10:44.390Z,13.3
2022-08-19T22:13:27.127Z,13.3
2022-08-19T22:16:00.464Z,13.3
2022-08-19T22:18:31.103Z,13.3
2022-08-19T22:23:31.838Z,13.3
2022-08-19T22:26:02.397Z,13.3
2022-08-19T22:28:42.994Z,13.3
2022-08-19T22:31:14.922Z,13.3
2022-08-19T22:33:46.800Z,13.3
2022-08-19T22:36:17.377Z,13.3
2022-08-19T22:38:47.982Z,13.3
2022-08-19T22:41:18.567Z,13.3
2022-08-19T22:43:59.230Z,13.3
2022-08-19T22:46:29.831Z,13.3
2022-08-19T22:49:00.967Z,13.3
2022-08-19T22:51:32.341Z,13.3
2022-08-19T22:54:02.963Z,13.3
2022-08-19T22:56:33.578Z,13.3
2022-08-19T22:59:14.187Z,13.3
2022-08-19T23:04:14.958Z,13.3
2022-08-19T23:06:45.562Z,13.3
2022-08-19T23:09:16.833Z,13.3
2022-08-19T23:11:42.510Z,13.3
2022-08-19T23:14:23.135Z,13.3
2022-08-19T23:16:55.929Z,13.3
2022-08-19T23:19:30.827Z,13.3
2022-08-19T23:22:01.439Z,13.3
2022-08-19T23:24:35.292Z,13.3
2022-08-19T23:27:16.520Z,13.4
2022-08-19T23:29:47.250Z,13.3
2022-08-19T23:32:09.183Z,13.3
2022-08-19T23:34:41.617Z,13.3
2022-08-19T23:37:12.199Z,13.3
2022-08-19T23:39:44.724Z,13.3
2022-08-19T23:44:56.270Z,13.3
2022-08-19T23:47:23.986Z,13.4
2022-08-19T23:49:55.413Z,13.4
2022-08-19T23:52:25.995Z,13.4
2022-08-19T23:54:56.635Z,13.4
2022-08-19T23:57:37.236Z,13.4
